createdAt,value
2023-05-18T00:00:45.613Z,8.68
2023-05-18T00:01:45.772Z,8.68
2023-05-18T00:02:45.088Z,8.66
2023-05-18T00:03:45.676Z,8.65
2023-05-18T00:04:45.200Z,8.64
2023-05-18T00:05:45.561Z,8.63
2023-05-18T00:06:44.900Z,8.62
2023-05-18T00:07:45.612Z,8.60
2023-05-18T00:08:44.949Z,8.59
2023-05-18T00:09:45.543Z,8.59
2023-05-18T00:10:45.500Z,8.58
2023-05-18T00:11:45.478Z,8.57
2023-05-18T00:12:45.635Z,8.56
2023-05-18T00:13:45.537Z,8.56
2023-05-18T00:14:45.487Z,8.55
2023-05-18T00:15:45.437Z,8.55
2023-05-18T00:16:45.519Z,8.54
2023-05-18T00:17:45.022Z,8.53
2023-05-18T00:18:44.901Z,8.52
2023-05-18T00:19:45.384Z,8.52
2023-05-18T00:20:45.445Z,8.50
2023-05-18T00:21:45.364Z,8.49
2023-05-18T00:22:45.336Z,8.48
2023-05-18T00:23:45.582Z,8.47
2023-05-18T00:24:45.408Z,8.46
2023-05-18T00:25:47.146Z,8.44
2023-05-18T00:26:45.309Z,8.44
2023-05-18T00:27:45.282Z,8.42
2023-05-18T00:28:45.296Z,8.41
2023-05-18T00:29:45.324Z,8.40
2023-05-18T00:30:45.271Z,8.39
2023-05-18T00:31:45.332Z,8.38
2023-05-18T00:32:45.245Z,8.37
2023-05-18T00:33:45.241Z,8.36
2023-05-18T00:34:44.570Z,8.35
2023-05-18T00:35:45.222Z,8.35
2023-05-18T00:36:45.196Z,8.33
2023-05-18T00:37:45.211Z,8.33
2023-05-18T00:38:44.504Z,8.33
2023-05-18T00:39:45.191Z,8.32
2023-05-18T00:40:45.182Z,8.31
2023-05-18T00:41:44.491Z,8.30
2023-05-18T00:42:45.151Z,8.28
2023-05-18T00:43:44.453Z,8.28
2023-05-18T00:44:45.123Z,8.27
2023-05-18T00:45:45.164Z,8.26
2023-05-18T00:46:45.086Z,8.25
2023-05-18T00:47:44.425Z,8.24
2023-05-18T00:48:45.087Z,8.23
2023-05-18T00:49:45.069Z,8.21
2023-05-18T00:50:45.042Z,8.20
2023-05-18T00:51:45.065Z,8.18
2023-05-18T00:52:45.039Z,8.16
2023-05-18T00:53:45.032Z,8.14
2023-05-18T00:54:44.340Z,8.10
2023-05-18T00:55:44.345Z,8.07
2023-05-18T00:56:44.996Z,8.05
2023-05-18T00:57:44.993Z,8.02
2023-05-18T00:58:44.280Z,8.00
2023-05-18T00:59:44.945Z,7.97
2023-05-18T01:00:44.982Z,7.94
2023-05-18T01:01:44.365Z,7.92
2023-05-18T01:02:44.316Z,7.89
2023-05-18T01:03:44.231Z,7.87
2023-05-18T01:04:44.892Z,7.85
2023-05-18T01:05:44.904Z,7.84
2023-05-18T01:06:44.253Z,7.81
2023-05-18T01:07:44.874Z,7.79
2023-05-18T01:08:44.868Z,7.77
2023-05-18T01:09:44.839Z,7.75
2023-05-18T01:10:44.842Z,7.72
2023-05-18T01:11:44.836Z,7.70
2023-05-18T01:12:44.843Z,7.67
2023-05-18T01:13:44.181Z,7.64
2023-05-18T01:14:44.782Z,7.61
2023-05-18T01:15:44.106Z,7.58
2023-05-18T01:16:44.856Z,7.55
2023-05-18T01:17:44.104Z,7.54
2023-05-18T01:18:44.799Z,7.51
2023-05-18T01:19:44.749Z,7.48
2023-05-18T01:20:44.734Z,7.46
2023-05-18T01:21:44.727Z,7.45
2023-05-18T01:22:44.715Z,7.42
2023-05-18T01:23:44.043Z,7.40
2023-05-18T01:24:44.714Z,7.38
2023-05-18T01:25:44.688Z,7.37
2023-05-18T01:26:44.008Z,7.34
2023-05-18T01:27:44.044Z,7.33
2023-05-18T01:28:44.655Z,7.31
2023-05-18T01:29:43.958Z,7.28
2023-05-18T01:30:46.394Z,7.26
2023-05-18T01:31:44.619Z,7.25
2023-05-18T01:32:43.974Z,7.23
2023-05-18T01:33:43.948Z,7.22
2023-05-18T01:34:43.895Z,7.22
2023-05-18T01:35:46.331Z,7.21
2023-05-18T01:36:44.567Z,7.19
2023-05-18T01:37:43.901Z,7.19
2023-05-18T01:38:44.435Z,7.18
2023-05-18T01:39:44.557Z,7.17
2023-05-18T01:40:43.844Z,7.16
2023-05-18T01:41:44.502Z,7.15
2023-05-18T01:42:43.836Z,7.13
2023-05-18T01:43:44.491Z,7.12
2023-05-18T01:44:44.499Z,7.10
2023-05-18T01:45:44.486Z,7.09
2023-05-18T01:46:44.557Z,7.06
2023-05-18T01:47:44.463Z,7.06
2023-05-18T01:48:44.438Z,7.04
2023-05-18T01:49:44.428Z,7.02
2023-05-18T01:50:44.426Z,7.00
2023-05-18T01:51:44.390Z,7.00
2023-05-18T01:52:43.711Z,6.98
2023-05-18T01:53:44.383Z,6.96
2023-05-18T01:54:43.699Z,6.95
2023-05-18T01:55:44.348Z,6.93
2023-05-18T01:56:44.338Z,6.91
2023-05-18T01:57:44.346Z,6.89
2023-05-18T01:58:43.652Z,6.88
2023-05-18T01:59:44.325Z,6.87
2023-05-18T02:00:43.668Z,6.86
2023-05-18T02:01:44.327Z,6.85
2023-05-18T02:02:44.343Z,6.83
2023-05-18T02:03:43.695Z,6.83
2023-05-18T02:04:43.598Z,6.81
2023-05-18T02:05:43.593Z,6.79
2023-05-18T02:06:44.290Z,6.78
2023-05-18T02:07:44.270Z,6.76
2023-05-18T02:08:44.233Z,6.75
2023-05-18T02:09:44.226Z,6.74
2023-05-18T02:10:43.526Z,6.73
2023-05-18T02:11:44.194Z,6.72
2023-05-18T02:12:43.513Z,6.71
2023-05-18T02:13:44.168Z,6.69
2023-05-18T02:14:44.141Z,6.68
2023-05-18T02:15:44.152Z,6.65
2023-05-18T02:16:44.245Z,6.65
2023-05-18T02:17:43.473Z,6.63
2023-05-18T02:18:44.148Z,6.62
2023-05-18T02:19:44.080Z,6.62
2023-05-18T02:20:43.406Z,6.60
2023-05-18T02:21:44.336Z,6.59
2023-05-18T02:22:44.070Z,6.59
2023-05-18T02:23:43.418Z,6.58
2023-05-18T02:24:43.359Z,6.58
2023-05-18T02:25:44.038Z,6.57
2023-05-18T02:26:43.347Z,6.56
2023-05-18T02:27:44.017Z,6.57
2023-05-18T02:28:43.349Z,6.56
2023-05-18T02:29:43.314Z,6.55
2023-05-18T02:30:43.980Z,6.56
2023-05-18T02:31:43.364Z,6.55
2023-05-18T02:32:43.980Z,6.55
2023-05-18T02:33:43.946Z,6.54
2023-05-18T02:34:43.936Z,6.54
2023-05-18T02:35:43.927Z,6.53
2023-05-18T02:36:43.917Z,6.53
2023-05-18T02:37:43.894Z,6.51
2023-05-18T02:38:43.209Z,6.51
2023-05-18T02:39:43.201Z,6.50
2023-05-18T02:40:43.874Z,6.50
2023-05-18T02:41:43.875Z,6.48
2023-05-18T02:42:43.837Z,6.47
2023-05-18T02:43:43.842Z,6.47
2023-05-18T02:44:43.858Z,6.46
2023-05-18T02:45:43.160Z,6.46
2023-05-18T02:46:43.145Z,6.45
2023-05-18T02:47:43.815Z,6.43
2023-05-18T02:48:43.794Z,6.43
2023-05-18T02:49:43.782Z,6.43
2023-05-18T02:50:43.086Z,6.42
2023-05-18T02:51:43.088Z,6.41
2023-05-18T02:52:43.076Z,6.40
2023-05-18T02:53:43.045Z,6.40
2023-05-18T02:54:43.735Z,6.39
2023-05-18T02:55:43.026Z,6.39
2023-05-18T02:56:43.053Z,6.38
2023-05-18T02:57:42.994Z,6.37
2023-05-18T02:58:43.720Z,6.37
2023-05-18T02:59:42.977Z,6.35
2023-05-18T03:00:42.988Z,6.35
2023-05-18T03:01:43.657Z,6.34
2023-05-18T03:02:43.974Z,6.34
2023-05-18T03:03:43.654Z,6.33
2023-05-18T03:04:42.948Z,6.32
2023-05-18T03:05:43.600Z,6.32
2023-05-18T03:06:42.913Z,6.31
2023-05-18T03:07:42.899Z,6.33
2023-05-18T03:08:42.900Z,6.33
2023-05-18T03:09:42.882Z,6.32
2023-05-18T03:10:43.537Z,6.33
2023-05-18T03:11:43.554Z,6.34
2023-05-18T03:12:43.540Z,6.35
2023-05-18T03:13:43.522Z,6.36
2023-05-18T03:14:43.492Z,6.37
2023-05-18T03:15:43.492Z,6.38
2023-05-18T03:16:43.525Z,6.40
2023-05-18T03:17:43.490Z,6.41
2023-05-18T03:18:43.496Z,6.42
2023-05-18T03:19:43.441Z,6.44
2023-05-18T03:20:43.449Z,6.45
2023-05-18T03:21:42.786Z,6.47
2023-05-18T03:22:42.736Z,6.47
2023-05-18T03:23:43.415Z,6.49
2023-05-18T03:24:43.383Z,6.50
2023-05-18T03:25:42.725Z,6.51
2023-05-18T03:26:43.382Z,6.52
2023-05-18T03:27:43.376Z,6.54
2023-05-18T03:28:43.350Z,6.55
2023-05-18T03:29:43.340Z,6.57
2023-05-18T03:30:42.669Z,6.58
2023-05-18T03:31:42.703Z,6.58
2023-05-18T03:32:43.380Z,6.60
2023-05-18T03:33:42.666Z,6.62
2023-05-18T03:34:43.316Z,6.63
2023-05-18T03:35:43.289Z,6.64
2023-05-18T03:36:42.615Z,6.65
2023-05-18T03:37:42.587Z,6.67
2023-05-18T03:38:42.596Z,6.69
2023-05-18T03:39:42.555Z,6.70
2023-05-18T03:40:43.231Z,6.72
2023-05-18T03:41:42.604Z,6.73
2023-05-18T03:42:43.208Z,6.75
2023-05-18T03:43:43.187Z,6.76
2023-05-18T03:44:43.197Z,6.78
2023-05-18T03:45:42.491Z,6.79
2023-05-18T03:46:43.267Z,6.80
2023-05-18T03:47:43.225Z,6.81
2023-05-18T03:48:43.163Z,6.83
2023-05-18T03:49:42.465Z,6.85
2023-05-18T03:50:43.129Z,6.87
2023-05-18T03:51:42.480Z,6.89
2023-05-18T03:52:42.425Z,6.92
2023-05-18T03:53:43.089Z,6.95
2023-05-18T03:54:42.401Z,6.98
2023-05-18T03:55:44.814Z,7.02
2023-05-18T03:56:43.042Z,7.05
2023-05-18T03:57:43.032Z,7.08
2023-05-18T03:58:43.039Z,7.12
2023-05-18T03:59:42.333Z,7.15
2023-05-18T04:00:42.339Z,7.18
2023-05-18T04:01:42.465Z,7.21
2023-05-18T04:02:43.006Z,7.24
2023-05-18T04:03:42.403Z,7.26
2023-05-18T04:04:42.979Z,7.31
2023-05-18T04:05:42.282Z,7.35
2023-05-18T04:06:42.288Z,7.40
2023-05-18T04:07:42.942Z,7.45
2023-05-18T04:08:42.934Z,7.51
2023-05-18T04:09:42.928Z,7.57
2023-05-18T04:10:42.893Z,7.64
2023-05-18T04:11:42.881Z,7.71
2023-05-18T04:12:42.898Z,7.80
2023-05-18T04:13:42.876Z,7.89
2023-05-18T04:14:42.867Z,8.00
2023-05-18T04:15:42.842Z,8.11
2023-05-18T04:16:42.865Z,8.24
2023-05-18T04:17:42.862Z,8.40
2023-05-18T04:18:42.890Z,8.55
2023-05-18T04:19:42.816Z,8.71
2023-05-18T04:20:42.785Z,8.89
2023-05-18T04:21:42.808Z,9.07
2023-05-18T04:22:42.783Z,9.27
2023-05-18T04:23:42.077Z,9.46
2023-05-18T04:24:42.100Z,9.65
2023-05-18T04:25:42.077Z,9.84
2023-05-18T04:26:42.739Z,10.03
2023-05-18T04:27:42.193Z,10.23
2023-05-18T04:28:42.731Z,10.42
2023-05-18T04:29:42.688Z,10.62
2023-05-18T04:30:42.703Z,10.82
2023-05-18T04:31:42.789Z,11.02
2023-05-18T04:32:43.277Z,11.21
2023-05-18T04:33:42.664Z,11.40
2023-05-18T04:34:42.653Z,11.61
2023-05-18T04:35:41.971Z,11.81
2023-05-18T04:36:41.947Z,12.02
2023-05-18T04:37:42.619Z,12.21
2023-05-18T04:38:42.592Z,12.42
2023-05-18T04:39:42.583Z,12.63
2023-05-18T04:40:41.930Z,12.87
2023-05-18T04:41:41.902Z,13.11
2023-05-18T04:42:41.904Z,13.36
2023-05-18T04:43:42.539Z,13.63
2023-05-18T04:44:42.551Z,13.92
2023-05-18T04:45:41.876Z,14.20
2023-05-18T04:46:41.846Z,14.50
2023-05-18T04:47:42.550Z,14.73
2023-05-18T04:48:41.840Z,14.94
2023-05-18T04:49:42.520Z,15.15
2023-05-18T04:50:42.479Z,15.38
2023-05-18T04:51:42.469Z,15.65
2023-05-18T04:52:42.447Z,15.92
2023-05-18T04:53:42.430Z,16.20
2023-05-18T04:54:42.442Z,16.48
2023-05-18T04:55:42.428Z,16.74
2023-05-18T04:56:41.735Z,16.90
2023-05-18T04:57:42.390Z,17.05
2023-05-18T04:58:41.725Z,17.15
2023-05-18T04:59:41.734Z,17.25
2023-05-18T05:00:42.375Z,17.38
2023-05-18T05:01:42.451Z,17.51
2023-05-18T05:02:41.899Z,17.63
2023-05-18T05:03:41.698Z,17.78
2023-05-18T05:04:41.658Z,17.93
2023-05-18T05:05:42.324Z,18.08
2023-05-18T05:06:42.291Z,18.25
2023-05-18T05:07:42.286Z,18.39
2023-05-18T05:08:42.299Z,18.48
2023-05-18T05:09:42.277Z,18.57
2023-05-18T05:10:41.590Z,18.64
2023-05-18T05:11:41.594Z,18.76
2023-05-18T05:12:43.469Z,18.87
2023-05-18T05:13:42.230Z,19.01
2023-05-18T05:14:42.217Z,19.14
2023-05-18T05:15:42.260Z,19.28
2023-05-18T05:16:41.521Z,19.48
2023-05-18T05:17:42.285Z,19.71
2023-05-18T05:18:42.214Z,19.94
2023-05-18T05:19:42.169Z,20.15
2023-05-18T05:20:41.526Z,20.33
2023-05-18T05:21:42.126Z,20.50
2023-05-18T05:22:42.210Z,20.69
2023-05-18T05:23:42.119Z,20.90
2023-05-18T05:24:42.110Z,21.13
2023-05-18T05:25:42.082Z,21.33
2023-05-18T05:26:41.393Z,21.51
2023-05-18T05:27:42.073Z,21.62
2023-05-18T05:28:41.395Z,21.69
2023-05-18T05:29:42.055Z,21.75
2023-05-18T05:30:42.034Z,21.84
2023-05-18T05:31:42.073Z,21.95
2023-05-18T05:32:41.399Z,22.07
2023-05-18T05:33:42.017Z,22.15
2023-05-18T05:34:41.350Z,22.20
2023-05-18T05:35:41.970Z,22.20
2023-05-18T05:36:41.987Z,22.23
2023-05-18T05:37:41.983Z,22.32
2023-05-18T05:38:41.277Z,22.44
2023-05-18T05:39:41.289Z,22.51
2023-05-18T05:40:41.947Z,22.65
2023-05-18T05:41:41.933Z,22.76
2023-05-18T05:42:41.926Z,22.80
2023-05-18T05:43:41.889Z,22.82
2023-05-18T05:44:41.227Z,22.91
2023-05-18T05:45:41.377Z,22.94
2023-05-18T05:46:41.922Z,22.93
2023-05-18T05:47:41.899Z,22.94
2023-05-18T05:48:41.838Z,23.00
2023-05-18T05:49:41.855Z,23.01
2023-05-18T05:50:41.155Z,23.05
2023-05-18T05:51:41.123Z,23.15
2023-05-18T05:52:41.817Z,23.26
2023-05-18T05:53:41.777Z,23.38
2023-05-18T05:54:41.810Z,23.33
2023-05-18T05:55:41.776Z,23.20
2023-05-18T05:56:41.775Z,23.26
2023-05-18T05:57:41.092Z,23.37
2023-05-18T05:58:41.734Z,23.38
2023-05-18T05:59:41.742Z,23.32
2023-05-18T06:00:41.747Z,23.29
2023-05-18T06:01:41.066Z,23.30
2023-05-18T06:02:41.179Z,23.39
2023-05-18T06:03:41.090Z,23.55
2023-05-18T06:04:41.686Z,23.79
2023-05-18T06:05:41.690Z,24.01
2023-05-18T06:06:41.662Z,24.17
2023-05-18T06:07:41.648Z,24.27
2023-05-18T06:08:40.986Z,24.40
2023-05-18T06:09:40.984Z,24.52
2023-05-18T06:10:41.618Z,24.63
2023-05-18T06:11:41.590Z,24.66
2023-05-18T06:12:41.582Z,24.68
2023-05-18T06:13:41.597Z,24.72
2023-05-18T06:14:40.887Z,24.78
2023-05-18T06:15:41.556Z,24.85
2023-05-18T06:16:41.570Z,24.87
2023-05-18T06:17:40.892Z,24.88
2023-05-18T06:18:41.554Z,24.92
2023-05-18T06:19:41.515Z,25.04
2023-05-18T06:20:40.840Z,25.22
2023-05-18T06:21:41.478Z,25.41
2023-05-18T06:22:41.487Z,25.54
2023-05-18T06:23:42.116Z,25.71
2023-05-18T06:24:41.470Z,25.89
2023-05-18T06:25:41.434Z,26.05
2023-05-18T06:26:40.789Z,26.18
2023-05-18T06:27:41.429Z,26.27
2023-05-18T06:28:41.421Z,26.30
2023-05-18T06:29:41.420Z,26.36
2023-05-18T06:30:40.773Z,26.45
2023-05-18T06:31:41.437Z,26.49
2023-05-18T06:32:40.756Z,26.50
2023-05-18T06:33:40.710Z,26.56
2023-05-18T06:34:41.371Z,26.69
2023-05-18T06:35:41.331Z,26.85
2023-05-18T06:36:41.337Z,26.93
2023-05-18T06:37:40.650Z,26.90
2023-05-18T06:38:41.317Z,26.89
2023-05-18T06:39:41.286Z,26.91
2023-05-18T06:40:41.281Z,26.93
2023-05-18T06:41:40.602Z,26.94
2023-05-18T06:42:41.271Z,26.98
2023-05-18T06:43:40.578Z,26.99
2023-05-18T06:44:43.027Z,27.01
2023-05-18T06:45:41.236Z,27.12
2023-05-18T06:46:41.285Z,27.17
2023-05-18T06:47:41.279Z,27.33
2023-05-18T06:48:40.522Z,27.51
2023-05-18T06:49:40.524Z,27.60
2023-05-18T06:50:41.181Z,27.71
2023-05-18T06:51:41.176Z,27.85
2023-05-18T06:52:40.483Z,27.98
2023-05-18T06:53:41.134Z,28.08
2023-05-18T06:54:40.460Z,28.17
2023-05-18T06:55:41.133Z,28.27
2023-05-18T06:56:41.118Z,28.35
2023-05-18T06:57:41.114Z,28.39
2023-05-18T06:58:40.430Z,28.46
2023-05-18T06:59:40.395Z,28.51
2023-05-18T07:00:40.388Z,28.60
2023-05-18T07:01:40.418Z,28.73
2023-05-18T07:02:40.372Z,28.85
2023-05-18T07:03:41.110Z,28.96
2023-05-18T07:04:40.372Z,29.07
2023-05-18T07:05:40.340Z,29.18
2023-05-18T07:06:40.327Z,29.22
2023-05-18T07:07:41.054Z,29.27
2023-05-18T07:08:40.978Z,29.35
2023-05-18T07:09:40.984Z,29.46
2023-05-18T07:10:40.968Z,29.57
2023-05-18T07:11:40.319Z,29.64
2023-05-18T07:12:40.951Z,29.71
2023-05-18T07:13:40.943Z,29.75
2023-05-18T07:14:40.924Z,29.82
2023-05-18T07:15:40.931Z,29.94
2023-05-18T07:16:40.213Z,30.08
2023-05-18T07:17:40.905Z,30.19
2023-05-18T07:18:40.212Z,30.33
2023-05-18T07:19:40.882Z,30.48
2023-05-18T07:20:40.880Z,30.67
2023-05-18T07:21:40.183Z,30.87
2023-05-18T07:22:40.181Z,31.10
2023-05-18T07:23:40.153Z,31.32
2023-05-18T07:24:40.161Z,31.49
2023-05-18T07:25:40.809Z,31.61
2023-05-18T07:26:40.137Z,31.67
2023-05-18T07:27:40.789Z,31.76
2023-05-18T07:28:40.100Z,31.86
2023-05-18T07:29:40.085Z,32.01
2023-05-18T07:30:40.081Z,32.08
2023-05-18T07:31:40.132Z,32.15
2023-05-18T07:32:40.735Z,32.31
2023-05-18T07:33:41.247Z,32.48
2023-05-18T07:34:40.033Z,32.63
2023-05-18T07:35:40.041Z,32.80
2023-05-18T07:36:40.691Z,32.94
2023-05-18T07:37:40.678Z,33.08
2023-05-18T07:38:40.672Z,33.19
2023-05-18T07:39:39.970Z,33.27
2023-05-18T07:40:39.986Z,33.12
2023-05-18T07:41:39.949Z,33.36
2023-05-18T07:42:40.628Z,33.54
2023-05-18T07:43:40.615Z,33.73
2023-05-18T07:44:40.584Z,33.85
2023-05-18T07:45:40.570Z,33.95
2023-05-18T07:46:39.917Z,34.03
2023-05-18T07:47:40.591Z,34.11
2023-05-18T07:48:41.173Z,34.14
2023-05-18T07:49:39.876Z,34.19
2023-05-18T07:50:40.551Z,34.24
2023-05-18T07:51:39.898Z,34.40
2023-05-18T07:52:39.873Z,33.54
2023-05-18T07:53:39.816Z,33.45
2023-05-18T07:54:40.476Z,33.90
2023-05-18T07:55:40.481Z,34.22
2023-05-18T07:56:39.830Z,34.43
2023-05-18T07:57:40.461Z,34.57
2023-05-18T07:58:40.437Z,33.93
2023-05-18T07:59:40.420Z,33.58
2023-05-18T08:00:40.431Z,32.51
2023-05-18T08:01:40.451Z,33.14
2023-05-18T08:02:40.649Z,33.38
2023-05-18T08:03:40.510Z,33.71
2023-05-18T08:04:39.704Z,34.00
2023-05-18T08:05:40.373Z,34.27
2023-05-18T08:06:40.361Z,34.52
2023-05-18T08:07:39.695Z,32.13
2023-05-18T08:08:39.689Z,30.43
2023-05-18T08:09:39.651Z,29.59
2023-05-18T08:10:39.653Z,28.25
2023-05-18T08:11:39.637Z,27.51
2023-05-18T08:12:40.292Z,26.75
2023-05-18T08:13:40.277Z,25.84
2023-05-18T08:14:40.286Z,25.02
2023-05-18T08:15:40.268Z,24.38
2023-05-18T08:16:39.579Z,23.97
2023-05-18T08:17:40.253Z,24.14
2023-05-18T08:18:40.344Z,24.31
2023-05-18T08:19:41.823Z,24.77
2023-05-18T08:20:40.215Z,25.34
2023-05-18T08:21:40.194Z,25.60
2023-05-18T08:22:39.551Z,26.74
2023-05-18T08:23:40.177Z,26.55
2023-05-18T08:24:39.489Z,25.49
2023-05-18T08:25:40.161Z,24.64
2023-05-18T08:26:40.132Z,23.96
2023-05-18T08:27:39.469Z,23.38
2023-05-18T08:28:40.130Z,22.83
2023-05-18T08:29:40.120Z,22.38
2023-05-18T08:30:39.411Z,22.02
2023-05-18T08:31:40.108Z,21.68
2023-05-18T08:32:40.166Z,21.37
2023-05-18T08:33:39.423Z,21.12
2023-05-18T08:34:40.058Z,20.96
2023-05-18T08:35:40.057Z,20.87
2023-05-18T08:36:39.363Z,20.82
2023-05-18T08:37:40.194Z,20.71
2023-05-18T08:38:39.335Z,20.59
2023-05-18T08:39:39.334Z,20.55
2023-05-18T08:40:39.392Z,20.57
2023-05-18T08:41:39.964Z,20.64
2023-05-18T08:42:49.511Z,20.80
2023-05-18T08:43:41.238Z,21.05
2023-05-18T08:44:39.274Z,21.67
2023-05-18T08:45:39.290Z,22.81
2023-05-18T08:46:39.257Z,23.67
2023-05-18T08:47:40.118Z,23.55
2023-05-18T08:48:39.969Z,23.03
2023-05-18T08:49:39.212Z,22.59
2023-05-18T08:50:39.869Z,22.28
2023-05-18T08:51:39.196Z,22.44
2023-05-18T08:52:39.873Z,23.25
2023-05-18T08:53:39.858Z,23.95
2023-05-18T08:54:39.249Z,24.31
2023-05-18T08:55:39.831Z,24.50
2023-05-18T08:56:39.834Z,24.20
2023-05-18T08:57:39.820Z,24.02
2023-05-18T08:58:39.803Z,24.15
2023-05-18T08:59:39.771Z,23.93
2023-05-18T09:00:39.779Z,23.86
2023-05-18T09:01:39.121Z,23.55
2023-05-18T09:02:39.158Z,23.39
2023-05-18T09:03:39.746Z,23.14
2023-05-18T09:04:39.178Z,22.94
2023-05-18T09:05:39.728Z,22.71
2023-05-18T09:06:39.717Z,22.48
2023-05-18T09:07:39.045Z,22.38
2023-05-18T09:08:39.674Z,22.27
2023-05-18T09:09:39.085Z,22.60
2023-05-18T09:10:39.676Z,23.19
2023-05-18T09:11:39.662Z,23.71
2023-05-18T09:12:39.648Z,24.15
2023-05-18T09:13:39.625Z,24.57
2023-05-18T09:14:39.622Z,24.94
2023-05-18T09:15:39.626Z,25.20
2023-05-18T09:16:39.607Z,25.46
2023-05-18T09:17:39.620Z,25.72
2023-05-18T09:18:39.596Z,25.87
2023-05-18T09:19:38.889Z,25.96
2023-05-18T09:20:38.898Z,26.04
2023-05-18T09:21:38.877Z,26.10
2023-05-18T09:22:39.531Z,26.20
2023-05-18T09:23:39.513Z,26.22
2023-05-18T09:24:38.854Z,26.27
2023-05-18T09:25:38.826Z,26.26
2023-05-18T09:26:39.496Z,26.33
2023-05-18T09:27:39.466Z,26.42
2023-05-18T09:28:39.480Z,26.49
2023-05-18T09:29:39.519Z,26.57
2023-05-18T09:30:39.455Z,26.51
2023-05-18T09:31:38.786Z,26.42
2023-05-18T09:32:38.857Z,26.39
2023-05-18T09:33:38.856Z,26.47
2023-05-18T09:34:38.774Z,26.61
2023-05-18T09:35:39.399Z,26.72
2023-05-18T09:36:38.728Z,26.89
2023-05-18T09:37:38.712Z,27.05
2023-05-18T09:38:38.736Z,27.20
2023-05-18T09:39:39.363Z,27.21
2023-05-18T09:40:39.370Z,27.18
2023-05-18T09:41:38.673Z,27.18
2023-05-18T09:42:39.339Z,27.24
2023-05-18T09:43:39.311Z,27.32
2023-05-18T09:44:38.618Z,27.35
2023-05-18T09:45:39.290Z,26.74
2023-05-18T09:46:38.668Z,26.23
2023-05-18T09:47:38.611Z,26.04
2023-05-18T09:48:38.572Z,25.95
2023-05-18T09:49:38.584Z,25.97
2023-05-18T09:50:38.649Z,25.99
2023-05-18T09:51:39.207Z,26.00
2023-05-18T09:52:38.534Z,26.01
2023-05-18T09:53:38.512Z,26.03
2023-05-18T09:54:38.517Z,26.07
2023-05-18T09:55:38.526Z,26.17
2023-05-18T09:56:39.199Z,26.27
2023-05-18T09:57:39.173Z,26.40
2023-05-18T09:58:38.478Z,26.47
2023-05-18T09:59:39.128Z,26.49
2023-05-18T10:00:39.127Z,26.51
2023-05-18T10:01:38.448Z,26.55
2023-05-18T10:02:38.464Z,26.63
2023-05-18T10:03:39.099Z,26.69
2023-05-18T10:04:39.204Z,27.00
2023-05-18T10:05:38.610Z,27.37
2023-05-18T10:06:38.380Z,27.77
2023-05-18T10:07:38.379Z,28.20
2023-05-18T10:08:38.367Z,28.65
2023-05-18T10:09:39.014Z,29.10
2023-05-18T10:10:39.034Z,29.60
2023-05-18T10:11:38.335Z,29.99
2023-05-18T10:12:38.998Z,30.21
2023-05-18T10:13:39.273Z,30.35
2023-05-18T10:14:38.964Z,30.49
2023-05-18T10:15:38.964Z,30.75
2023-05-18T10:16:38.351Z,31.01
2023-05-18T10:17:38.516Z,31.32
2023-05-18T10:18:39.086Z,31.66
2023-05-18T10:19:38.248Z,31.97
2023-05-18T10:20:38.914Z,32.21
2023-05-18T10:21:38.907Z,32.41
2023-05-18T10:22:38.896Z,32.44
2023-05-18T10:23:38.868Z,32.52
2023-05-18T10:24:38.880Z,32.73
2023-05-18T10:25:38.859Z,33.06
2023-05-18T10:26:38.166Z,33.51
2023-05-18T10:27:38.826Z,33.81
2023-05-18T10:28:38.163Z,33.90
2023-05-18T10:29:38.817Z,34.37
2023-05-18T10:30:38.259Z,34.70
2023-05-18T10:31:38.798Z,34.70
2023-05-18T10:32:38.790Z,34.61
2023-05-18T10:33:38.965Z,34.52
2023-05-18T10:34:38.764Z,34.49
2023-05-18T10:35:38.085Z,34.51
2023-05-18T10:36:38.775Z,34.56
2023-05-18T10:37:38.717Z,34.54
2023-05-18T10:38:38.738Z,34.47
2023-05-18T10:39:38.716Z,34.38
2023-05-18T10:40:38.701Z,34.07
2023-05-18T10:41:38.669Z,33.40
2023-05-18T10:42:38.668Z,32.40
2023-05-18T10:43:38.675Z,31.02
2023-05-18T10:44:37.975Z,29.38
2023-05-18T10:45:38.660Z,27.68
2023-05-18T10:46:38.766Z,26.09
2023-05-18T10:47:38.803Z,24.78
2023-05-18T10:48:38.787Z,23.78
2023-05-18T10:49:38.605Z,22.98
2023-05-18T10:50:37.907Z,22.28
2023-05-18T10:51:38.564Z,21.68
2023-05-18T10:52:37.897Z,21.17
2023-05-18T10:53:38.556Z,20.79
2023-05-18T10:54:38.553Z,20.48
2023-05-18T10:55:38.540Z,20.21
2023-05-18T10:56:38.505Z,19.93
2023-05-18T10:57:38.564Z,19.67
2023-05-18T10:58:37.829Z,19.44
2023-05-18T10:59:37.822Z,19.23
2023-05-18T11:00:38.469Z,19.02
2023-05-18T11:01:38.482Z,18.79
2023-05-18T11:02:38.514Z,18.57
2023-05-18T11:03:37.784Z,18.39
2023-05-18T11:04:38.507Z,18.20
2023-05-18T11:05:37.782Z,18.06
2023-05-18T11:06:38.420Z,17.92
2023-05-18T11:07:38.413Z,17.78
2023-05-18T11:08:37.713Z,17.62
2023-05-18T11:09:37.715Z,17.50
2023-05-18T11:10:38.362Z,17.43
2023-05-18T11:11:38.363Z,17.36
2023-05-18T11:12:38.375Z,17.33
2023-05-18T11:13:38.367Z,17.31
2023-05-18T11:14:38.313Z,17.28
2023-05-18T11:15:38.319Z,17.25
2023-05-18T11:16:38.341Z,17.20
2023-05-18T11:17:38.310Z,17.15
2023-05-18T11:18:38.319Z,17.08
2023-05-18T11:19:38.261Z,17.03
2023-05-18T11:20:38.273Z,17.00
2023-05-18T11:21:38.259Z,17.00
2023-05-18T11:22:37.560Z,17.04
2023-05-18T11:23:37.607Z,17.09
2023-05-18T11:24:38.285Z,17.14
2023-05-18T11:25:38.208Z,17.16
2023-05-18T11:26:38.194Z,17.14
2023-05-18T11:27:37.638Z,17.11
2023-05-18T11:28:37.506Z,17.10
2023-05-18T11:29:37.515Z,17.09
2023-05-18T11:30:39.928Z,17.08
2023-05-18T11:31:39.919Z,17.08
2023-05-18T11:32:37.522Z,17.10
2023-05-18T11:33:37.473Z,17.10
2023-05-18T11:34:39.717Z,17.09
2023-05-18T11:35:39.856Z,17.09
2023-05-18T11:36:38.350Z,17.08
2023-05-18T11:37:37.445Z,17.06
2023-05-18T11:38:38.060Z,17.06
2023-05-18T11:39:48.171Z,17.07
2023-05-18T11:40:40.287Z,17.07
2023-05-18T11:41:38.033Z,17.08
2023-05-18T11:42:37.378Z,17.09
2023-05-18T11:43:38.015Z,17.10
2023-05-18T11:44:38.221Z,17.11
2023-05-18T11:45:37.988Z,17.14
2023-05-18T11:46:37.964Z,17.17
2023-05-18T11:47:38.232Z,17.19
2023-05-18T11:48:37.551Z,17.19
2023-05-18T11:49:38.157Z,17.18
2023-05-18T11:50:39.703Z,17.16
2023-05-18T11:51:39.720Z,17.17
2023-05-18T11:52:38.200Z,17.21
2023-05-18T11:53:38.161Z,17.25
2023-05-18T11:54:39.668Z,17.30
2023-05-18T11:55:38.202Z,17.37
2023-05-18T11:56:38.148Z,17.41
2023-05-18T11:57:39.622Z,17.43
2023-05-18T11:58:38.101Z,17.44
2023-05-18T11:59:37.839Z,17.48
2023-05-18T12:00:38.134Z,17.49
2023-05-18T12:01:38.042Z,17.50
2023-05-18T12:02:38.099Z,17.51
2023-05-18T12:03:37.866Z,17.51
2023-05-18T12:04:37.882Z,17.51
2023-05-18T12:05:37.756Z,17.51
2023-05-18T12:06:37.770Z,17.50
2023-05-18T12:07:37.771Z,17.50
2023-05-18T12:08:37.750Z,17.46
2023-05-18T12:09:37.726Z,17.45
2023-05-18T12:10:37.715Z,17.46
2023-05-18T12:11:37.703Z,17.50
2023-05-18T12:12:37.705Z,17.51
2023-05-18T12:13:37.697Z,17.52
2023-05-18T12:14:37.661Z,17.51
2023-05-18T12:15:37.658Z,17.49
2023-05-18T12:16:37.755Z,17.48
2023-05-18T12:17:37.681Z,17.50
2023-05-18T12:18:36.964Z,17.54
2023-05-18T12:19:37.612Z,17.54
2023-05-18T12:20:37.610Z,17.55
2023-05-18T12:21:37.607Z,17.58
2023-05-18T12:22:37.582Z,17.59
2023-05-18T12:23:37.575Z,17.61
2023-05-18T12:24:37.552Z,17.62
2023-05-18T12:25:37.557Z,17.61
2023-05-18T12:26:37.543Z,17.62
2023-05-18T12:27:37.535Z,17.65
2023-05-18T12:28:37.498Z,17.66
2023-05-18T12:29:37.495Z,17.64
2023-05-18T12:30:37.498Z,17.62
2023-05-18T12:31:37.574Z,17.61
2023-05-18T12:32:39.273Z,17.59
2023-05-18T12:33:37.446Z,17.57
2023-05-18T12:34:37.454Z,17.55
2023-05-18T12:35:37.479Z,17.54
2023-05-18T12:36:38.690Z,17.54
2023-05-18T12:37:44.752Z,17.57
2023-05-18T12:38:37.738Z,17.59
2023-05-18T12:39:37.403Z,17.62
2023-05-18T12:40:37.398Z,17.66
2023-05-18T12:41:37.654Z,17.72
2023-05-18T12:42:36.693Z,17.76
2023-05-18T12:43:38.643Z,17.77
2023-05-18T12:44:37.348Z,17.78
2023-05-18T12:45:37.337Z,17.79
2023-05-18T12:46:37.372Z,17.81
2023-05-18T12:47:37.381Z,17.84
2023-05-18T12:48:37.374Z,17.86
2023-05-18T12:49:37.349Z,17.90
2023-05-18T12:50:37.381Z,17.93
2023-05-18T12:51:39.089Z,17.94
2023-05-18T12:52:37.968Z,17.93
2023-05-18T12:53:36.792Z,17.93
2023-05-18T12:54:37.244Z,17.90
2023-05-18T12:55:37.236Z,17.90
2023-05-18T12:56:37.225Z,17.89
2023-05-18T12:57:37.194Z,17.88
2023-05-18T12:58:37.202Z,17.90
2023-05-18T12:59:37.227Z,17.92
2023-05-18T13:00:37.180Z,17.95
2023-05-18T13:01:37.515Z,17.97